Time;durP1;ratioP1;P1;durP2;ratioP2;P2;SDS_P1;SDS_P2;PMS_P1;PMS_P2;Temp;Humidity;BMP_temperature;BMP_pressure;BME280_temperature;BME280_humidity;BME280_pressure;Samples;Min_cycle;Max_cycle;Signal;HPM_P1;HPM_P2
2021/07/22 00:00:08;;;;;;;14.88;2.72;;;;;;;17.43;60.50;98977.13;5090667;28;20548;-64
2021/07/22 00:02:41;;;;;;;5.30;2.50;;;;;;;17.44;60.45;98984.09;5073237;28;20035;-62
2021/07/22 00:05:08;;;;;;;5.38;2.78;;;;;;;17.34;60.39;98978.56;5089787;28;20048;-62
2021/07/22 00:07:34;;;;;;;7.07;2.47;;;;;;;17.38;60.80;98990.63;5055833;28;20040;-65
2021/07/22 00:10:00;;;;;;;6.75;3.05;;;;;;;17.37;61.01;98983.66;5090738;28;20035;-65
2021/07/22 00:12:25;;;;;;;5.13;2.33;;;;;;;17.36;61.18;98992.53;5091329;28;20531;-67
2021/07/22 00:14:51;;;;;;;3.53;2.30;;;;;;;17.24;61.33;98976.59;5089556;28;20036;-66
2021/07/22 00:17:17;;;;;;;9.65;2.38;;;;;;;17.30;61.54;98995.56;5089367;28;20102;-64
2021/07/22 00:19:42;;;;;;;5.20;2.53;;;;;;;17.25;61.78;98992.38;5091757;28;20043;-64
2021/07/22 00:22:08;;;;;;;2.53;2.22;;;;;;;17.21;61.90;98987.38;5091177;28;20047;-65
2021/07/22 00:24:34;;;;;;;3.58;2.67;;;;;;;17.25;62.08;98995.00;5091233;28;20036;-67
2021/07/22 00:27:00;;;;;;;5.10;2.63;;;;;;;17.25;62.31;99005.56;5089156;28;20394;-65
2021/07/22 00:29:30;;;;;;;2.70;2.28;;;;;;;17.24;62.27;99003.03;5091050;28;20093;-65
2021/07/22 00:31:56;;;;;;;2.97;2.08;;;;;;;17.22;62.55;99002.28;5090087;28;20050;-63
2021/07/22 00:34:24;;;;;;;6.47;2.38;;;;;;;17.21;62.43;99019.09;5073026;28;20039;-64
2021/07/22 00:36:49;;;;;;;7.03;2.35;;;;;;;17.19;62.54;99019.19;5089490;28;20047;-64
2021/07/22 00:39:16;;;;;;;5.88;2.63;;;;;;;17.09;62.76;99004.81;5089165;28;20138;-65
2021/07/22 00:41:42;;;;;;;10.02;2.47;;;;;;;17.18;62.78;99020.13;5089211;28;20493;-65
2021/07/22 00:44:09;;;;;;;6.93;2.70;;;;;;;17.16;62.84;99016.72;5089303;28;20040;-65
2021/07/22 00:46:35;;;;;;;3.60;2.22;;;;;;;17.15;63.02;99015.88;5089658;28;20039;-64
2021/07/22 00:49:01;;;;;;;10.63;2.40;;;;;;;17.14;62.85;99018.63;5069969;28;20060;-66
2021/07/22 00:51:27;;;;;;;6.85;2.33;;;;;;;17.11;63.08;99014.38;5089533;28;20055;-64
2021/07/22 00:53:53;;;;;;;4.57;2.30;;;;;;;17.06;63.24;99010.28;5072478;28;20645;-64
2021/07/22 00:56:19;;;;;;;3.63;2.30;;;;;;;17.07;63.24;99022.56;5037997;28;20078;-64
2021/07/22 00:58:45;;;;;;;6.93;2.20;;;;;;;17.18;62.96;99020.13;5088982;28;20054;-62
2021/07/22 01:01:12;;;;;;;4.97;2.47;;;;;;;17.45;62.41;99007.81;5089109;28;20093;-64
2021/07/22 01:03:44;;;;;;;8.20;2.28;;;;;;;17.75;60.75;98998.84;5054918;28;20043;-64
2021/07/22 01:06:11;;;;;;;4.03;2.30;;;;;;;17.87;60.16;99019.25;5088715;28;20043;-65
2021/07/22 01:08:37;;;;;;;5.70;2.42;;;;;;;17.63;60.84;98999.63;5071606;28;20082;-66
2021/07/22 01:11:32;;;;;;;6.57;2.38;;;;;;;17.64;60.75;99006.59;5088493;28;20055;-64
2021/07/22 01:13:57;;;;;;;8.73;2.47;;;;;;;17.59;60.79;99004.25;5089255;28;20425;-64
2021/07/22 01:16:24;;;;;;;4.90;3.00;;;;;;;17.64;60.62;99014.53;5089608;28;20564;-64
2021/07/22 01:18:50;;;;;;;3.65;2.33;;;;;;;17.61;60.68;99022.69;5088395;28;20558;-65
2021/07/22 01:21:17;;;;;;;3.40;2.25;;;;;;;17.64;60.51;99030.41;5055326;28;20079;-64
2021/07/22 01:23:44;;;;;;;5.25;2.20;;;;;;;17.83;59.86;99032.75;5072951;28;20046;-65
2021/07/22 01:26:32;;;;;;;4.47;2.40;;;;;;;17.88;59.43;99028.88;5059649;28;20134;-65
2021/07/22 01:29:05;;;;;;;6.97;2.20;;;;;;;17.65;60.10;99026.81;5091206;28;20105;-63
2021/07/22 01:31:32;;;;;;;9.45;2.75;;;;;;;17.72;60.04;99030.81;5055397;28;20421;-63
2021/07/22 01:33:58;;;;;;;4.20;2.20;;;;;;;17.59;60.38;99043.09;5089652;28;20116;-64
2021/07/22 01:36:25;;;;;;;3.42;2.50;;;;;;;17.68;60.07;99030.16;5055704;28;20525;-64
2021/07/22 01:38:53;;;;;;;3.20;2.58;;;;;;;17.88;59.49;99031.53;5088428;28;20055;-63
2021/07/22 01:41:19;;;;;;;3.42;2.20;;;;;;;17.72;60.21;99039.59;5072272;28;20051;-64
2021/07/22 01:43:46;;;;;;;3.50;2.47;;;;;;;17.50;60.93;99039.22;5071675;28;20043;-65
2021/07/22 01:46:18;;;;;;;9.63;2.72;;;;;;;17.42;61.48;99041.50;5090804;28;20552;-64
2021/07/22 01:48:44;;;;;;;;;;;;;;;17.52;61.09;99047.06;5073141;28;20087;-64
2021/07/22 01:51:11;;;;;;;3.92;2.70;;;;;;;17.52;60.70;99039.97;5088866;28;20369;-64
2021/07/22 01:53:40;;;;;;;6.82;2.50;;;;;;;17.73;60.32;99043.94;5054308;28;20475;-64
2021/07/22 01:56:08;;;;;;;3.38;2.22;;;;;;;17.93;59.60;99049.75;5087876;28;20050;-65
2021/07/22 01:58:34;;;;;;;2.70;2.28;;;;;;;18.01;59.44;99043.00;5070756;28;20040;-64
2021/07/22 02:01:02;;;;;;;5.60;2.65;;;;;;;18.04;59.36;99048.09;5092607;28;20051;-64
2021/07/22 02:03:29;;;;;;;8.93;3.13;;;;;;;18.03;59.10;99037.59;5075647;28;20055;-65
2021/07/22 02:05:58;;;;;;;4.40;2.00;;;;;;;17.90;59.48;99034.91;5092420;28;20207;-64
2021/07/22 02:08:23;;;;;;;3.10;2.30;;;;;;;17.58;61.04;99047.53;5091356;28;20047;-63
2021/07/22 02:10:50;;;;;;;3.72;2.88;;;;;;;17.36;61.68;99052.47;5073483;28;20044;-67
2021/07/22 02:13:16;;;;;;;4.80;1.95;;;;;;;17.50;60.83;99036.59;5091030;28;20080;-64
2021/07/22 02:15:46;;;;;;;8.00;2.40;;;;;;;17.35;61.29;99033.13;5091638;28;20044;-64
2021/07/22 02:18:21;;;;;;;6.25;2.28;;;;;;;17.59;61.00;99046.56;5074433;28;20047;-64
2021/07/22 02:20:48;;;;;;;8.80;2.33;;;;;;;17.63;60.69;99021.63;5091557;28;20398;-63
2021/07/22 02:23:15;;;;;;;7.68;3.33;;;;;;;18.19;59.14;99056.81;5075192;28;20036;-65
2021/07/22 02:26:08;;;;;;;4.72;2.17;;;;;;;18.64;57.57;99052.94;5047142;28;20047;-65
2021/07/22 02:28:36;;;;;;;3.83;2.17;;;;;;;19.29;54.98;99043.97;5091621;28;20048;-63
2021/07/22 02:31:03;;;;;;;3.47;2.00;;;;;;;19.94;52.77;99054.34;5042402;28;20485;-64
2021/07/22 02:33:32;;;;;;;2.92;2.17;;;;;;;20.42;51.05;99049.03;5074927;28;20036;-64
2021/07/22 02:35:58;;;;;;;3.67;2.30;;;;;;;20.87;49.33;99058.00;5092507;28;20501;-63
2021/07/22 02:38:42;;;;;;;2.78;2.10;;;;;;;21.42;47.41;99064.31;5093141;28;20052;-65
2021/07/22 02:41:08;;;;;;;3.15;1.85;;;;;;;21.89;46.21;99069.34;5092891;28;20417;-64
2021/07/22 02:43:35;;;;;;;3.45;1.70;;;;;;;22.41;44.73;99064.25;5092358;28;20054;-65
2021/07/22 02:46:08;;;;;;;7.95;2.40;;;;;;;22.66;43.60;99071.88;5072200;28;20186;-65
2021/07/22 02:48:38;;;;;;;6.78;1.67;;;;;;;23.27;42.36;99079.16;5074367;28;20051;-65
2021/07/22 02:51:05;;;;;;;5.97;1.75;;;;;;;23.46;40.75;99068.53;5056992;28;20056;-66
2021/07/22 02:53:32;;;;;;;4.93;1.88;;;;;;;23.68;41.05;99072.84;5057011;28;20040;-65
2021/07/22 02:56:17;;;;;;;2.78;2.13;;;;;;;23.70;39.18;99061.06;5045960;28;20036;-65
2021/07/22 02:58:44;;;;;;;2.97;1.83;;;;;;;23.66;39.69;99083.66;5089686;28;20051;-65
2021/07/22 03:01:11;;;;;;;4.07;1.77;;;;;;;24.06;38.70;99088.16;5090529;28;20558;-67
2021/07/22 03:03:37;;;;;;;9.82;2.75;;;;;;;24.56;37.78;99082.72;5041007;28;20178;-65
2021/07/22 03:06:04;;;;;;;7.65;2.13;;;;;;;24.87;37.02;99089.59;5057513;28;20040;-65
2021/07/22 03:08:35;;;;;;;5.38;1.92;;;;;;;24.99;36.31;99072.41;5059381;28;20051;-65
2021/07/22 03:11:02;;;;;;;7.68;1.90;;;;;;;25.07;36.13;99093.09;5072809;28;20508;-65
2021/07/22 03:13:30;;;;;;;3.80;2.28;;;;;;;25.17;36.09;99101.09;5091071;28;20408;-67
2021/07/22 03:15:57;;;;;;;6.13;2.25;;;;;;;25.56;35.07;99108.03;5074453;28;20093;-63
2021/07/22 03:18:48;;;;;;;7.22;2.13;;;;;;;25.77;34.08;99109.63;5064670;28;20051;-67
2021/07/22 03:21:14;;;;;;;6.15;1.92;;;;;;;25.40;35.18;99107.81;5073900;28;20036;-66
2021/07/22 03:23:49;;;;;;;3.10;1.90;;;;;;;25.88;34.28;99114.78;5043408;28;20047;-65
2021/07/22 03:26:18;;;;;;;3.88;1.67;;;;;;;25.94;33.49;99114.19;5090310;28;20077;-66
2021/07/22 03:28:48;;;;;;;2.03;1.75;;;;;;;26.25;33.16;99104.84;5073675;28;20524;-66
2021/07/22 03:31:27;;;;;;;3.22;1.80;;;;;;;26.49;32.33;99104.25;5091639;28;20043;-64
2021/07/22 03:34:08;;;;;;;2.40;1.90;;;;;;;26.71;32.06;99108.31;5075046;28;20505;-66
2021/07/22 03:36:39;;;;;;;3.30;1.70;;;;;;;26.80;31.55;99103.88;5074548;28;20032;-64
2021/07/22 03:39:12;;;;;;;2.97;1.80;;;;;;;27.11;31.24;99117.72;5072542;28;20043;-63
2021/07/22 03:41:49;;;;;;;4.25;1.98;;;;;;;26.25;32.22;99120.94;5091207;28;20127;-64
2021/07/22 03:44:41;;;;;;;2.30;1.70;;;;;;;26.74;31.55;99116.03;5088745;28;20084;-64
2021/07/22 03:47:13;;;;;;;5.20;1.98;;;;;;;27.03;31.33;99123.03;5057273;28;20500;-65
2021/07/22 03:49:40;;;;;;;3.08;1.88;;;;;;;27.35;30.44;99125.91;5090537;28;20058;-64
2021/07/22 03:52:20;;;;;;;3.97;1.80;;;;;;;27.29;30.43;99114.97;5058823;28;20162;-65
2021/07/22 03:54:54;;;;;;;3.50;1.80;;;;;;;27.22;30.20;99125.50;5090790;28;20060;-66
2021/07/22 03:57:20;;;;;;;4.00;1.63;;;;;;;26.35;31.46;99102.13;5040041;28;20135;-65
2021/07/22 03:59:46;;;;;;;5.53;1.73;;;;;;;26.33;31.71;99122.03;5089123;28;20118;-65
2021/07/22 04:02:12;;;;;;;4.05;1.98;;;;;;;27.15;30.38;99127.97;5088851;28;20048;-65
2021/07/22 04:04:41;;;;;;;2.25;1.77;;;;;;;27.33;29.69;99125.25;5071756;28;20143;-63
2021/07/22 04:07:07;;;;;;;3.17;1.67;;;;;;;27.95;29.23;99130.44;5071271;28;20040;-66
2021/07/22 04:09:45;;;;;;;4.47;1.80;;;;;;;28.21;28.43;99127.66;5036524;28;20421;-64
2021/07/22 04:12:40;;;;;;;3.15;1.50;;;;;;;28.05;28.21;99115.03;5069421;28;20048;-65
2021/07/22 04:15:20;;;;;;;9.95;1.77;;;;;;;28.17;28.08;99138.75;5055602;28;20045;-65
2021/07/22 04:17:49;;;;;;;1.73;1.55;;;;;;;28.41;27.74;99134.50;5035919;28;20461;-65
2021/07/22 04:20:26;;;;;;;3.88;1.70;;;;;;;28.80;27.02;99140.06;5054263;28;20086;-66
2021/07/22 04:23:18;;;;;;;4.75;1.90;;;;;;;28.73;26.92;99139.91;5067987;28;20059;-66
2021/07/22 04:26:02;;;;;;;4.13;1.83;;;;;;;28.61;26.83;99119.72;5064535;28;20044;-66
2021/07/22 04:28:54;;;;;;;1.63;1.40;;;;;;;29.06;26.31;99146.19;5075402;28;20082;-66
2021/07/22 04:31:22;;;;;;;3.25;1.60;;;;;;;29.37;25.60;99137.38;5056025;28;20079;-65
2021/07/22 04:34:02;;;;;;;3.28;1.60;;;;;;;28.47;26.85;99137.38;5072093;28;20151;-66
2021/07/22 04:37:06;;;;;;;2.45;1.50;;;;;;;29.50;25.16;99136.88;5050074;28;20523;-65
2021/07/22 04:39:52;;;;;;;8.30;2.00;;;;;;;29.61;24.91;99149.97;5042528;28;20061;-65
2021/07/22 04:42:37;;;;;;;4.20;1.55;;;;;;;30.00;24.24;99142.75;5077456;28;20414;-67
2021/07/22 04:45:23;;;;;;;4.78;1.40;;;;;;;30.47;23.53;99141.88;5074284;28;20048;-65
2021/07/22 04:48:04;;;;;;;3.95;1.40;;;;;;;29.89;24.17;99147.72;5088553;28;20160;-65
2021/07/22 04:50:52;;;;;;;5.22;1.40;;;;;;;29.85;24.37;99157.16;5097885;28;20060;-66
2021/07/22 04:53:49;;;;;;;4.30;1.60;;;;;;;30.78;23.10;99154.50;5087772;28;20139;-65
2021/07/22 04:56:14;;;;;;;6.80;1.70;;;;;;;30.14;23.54;99140.38;5070296;28;20131;-65
2021/07/22 04:58:41;;;;;;;3.92;1.65;;;;;;;30.70;22.96;99135.66;5053915;28;20036;-63
2021/07/22 05:01:17;;;;;;;4.07;1.60;;;;;;;31.02;22.25;99157.00;5070585;28;20032;-65
2021/07/22 05:03:43;;;;;;;3.20;1.40;;;;;;;31.31;22.02;99145.47;5088457;28;20043;-67
2021/07/22 05:06:09;;;;;;;6.00;1.90;;;;;;;30.69;22.98;99164.53;5072472;28;20044;-64
2021/07/22 05:08:55;;;;;;;5.30;1.45;;;;;;;30.58;22.81;99159.50;5072338;28;20453;-66
2021/07/22 05:11:38;;;;;;;8.45;1.67;;;;;;;30.76;22.63;99151.16;5042609;28;20086;-65
2021/07/22 05:14:16;;;;;;;5.07;2.10;;;;;;;30.68;22.55;99160.16;5056026;28;20079;-65
2021/07/22 05:16:51;;;;;;;4.30;1.77;;;;;;;30.89;22.05;99159.47;5088412;28;20127;-66
2021/07/22 05:19:37;;;;;;;3.58;1.63;;;;;;;32.26;20.85;99161.81;5087610;28;20051;-67
2021/07/22 05:22:30;;;;;;;7.60;1.63;;;;;;;31.43;21.20;99171.03;5089693;28;20052;-66
2021/07/22 05:25:08;;;;;;;2.55;1.70;;;;;;;30.36;22.02;99163.84;5070649;28;20040;-66
2021/07/22 05:27:54;;;;;;;3.13;1.40;;;;;;;31.52;21.18;99161.81;5072388;28;20040;-64
2021/07/22 05:30:26;;;;;;;2.13;1.50;;;;;;;32.19;20.12;99153.59;5071745;28;20116;-66
2021/07/22 05:33:12;;;;;;;3.13;1.40;;;;;;;32.79;19.27;99160.56;5088049;28;20052;-65
2021/07/22 05:36:04;;;;;;;;;;;;;;;33.12;18.94;99163.56;5079340;28;20055;-65
2021/07/22 05:38:37;;;;;;;6.88;1.60;;;;;;;33.49;18.45;99164.31;5092254;28;19978;-65
2021/07/22 05:41:05;;;;;;;3.97;1.50;;;;;;;32.97;18.83;99157.38;5074068;28;20040;-66
2021/07/22 05:43:31;;;;;;;2.67;1.58;;;;;;;33.12;18.55;99162.72;5092246;28;20040;-65
2021/07/22 05:45:57;;;;;;;9.43;1.50;;;;;;;32.87;18.33;99159.59;5091443;28;20528;-67
2021/07/22 05:48:23;;;;;;;6.10;1.50;;;;;;;31.80;19.95;99155.75;5091057;28;20056;-67
2021/07/22 05:50:49;;;;;;;2.78;1.45;;;;;;;31.49;20.27;99154.06;5092443;28;20205;-65
2021/07/22 05:53:19;;;;;;;2.67;1.80;;;;;;;32.22;19.70;99165.91;5091687;28;20044;-65
2021/07/22 05:55:46;;;;;;;4.60;1.60;;;;;;;33.20;18.91;99159.03;5089705;28;20261;-67
2021/07/22 05:58:11;;;;;;;7.57;1.80;;;;;;;32.04;19.48;99165.47;5091705;28;20134;-67
2021/07/22 06:00:37;;;;;;;3.53;1.35;;;;;;;31.00;20.01;99164.44;5089254;28;20150;-66
2021/07/22 06:03:04;;;;;;;6.13;1.63;;;;;;;31.56;20.12;99154.16;5091673;28;20046;-67
2021/07/22 06:05:30;;;;;;;6.68;1.50;;;;;;;32.08;19.42;99155.94;5090517;28;20052;-64
2021/07/22 06:07:57;;;;;;;7.10;1.90;;;;;;;32.26;18.90;99167.22;5038971;28;20048;-67
2021/07/22 06:10:23;;;;;;;3.95;1.52;;;;;;;31.08;20.60;99160.84;5073064;28;20489;-66
2021/07/22 06:12:48;;;;;;;3.42;1.60;;;;;;;31.23;20.80;99149.09;5039331;28;20122;-66
2021/07/22 06:15:33;;;;;;;4.28;1.40;;;;;;;31.81;19.89;99160.16;5092009;28;20169;-64
2021/07/22 06:17:59;;;;;;;3.85;1.80;;;;;;;32.70;19.23;99163.53;5090291;28;20044;-66
2021/07/22 06:20:25;;;;;;;4.93;1.50;;;;;;;33.01;18.52;99161.38;5090942;28;20517;-65
2021/07/22 06:22:50;;;;;;;4.30;1.63;;;;;;;32.64;18.53;99175.97;5091825;28;20411;-69
2021/07/22 06:25:16;;;;;;;3.47;1.70;;;;;;;31.67;19.50;99166.38;5091839;28;20067;-66
2021/07/22 06:27:43;;;;;;;8.52;1.60;;;;;;;30.81;20.41;99173.06;5092097;28;20132;-65
2021/07/22 06:30:09;;;;;;;7.40;1.58;;;;;;;30.69;20.66;99164.53;5091281;28;20047;-66
2021/07/22 06:32:35;;;;;;;7.93;1.65;;;;;;;31.88;19.22;99161.06;5092592;28;20059;-65
2021/07/22 06:35:02;;;;;;;5.70;1.48;;;;;;;31.38;19.56;99180.72;5090079;28;20032;-65
2021/07/22 06:37:28;;;;;;;9.95;1.70;;;;;;;32.17;18.78;99165.63;5056770;28;20044;-65
2021/07/22 06:39:59;;;;;;;;;;;;;;;32.34;18.10;99167.13;5090829;28;20123;-65
2021/07/22 06:42:25;;;;;;;3.22;1.40;;;;;;;33.39;17.44;99163.78;5072689;28;20014;-65
2021/07/22 06:44:51;;;;;;;10.40;1.80;;;;;;;34.16;16.61;99174.50;5091163;28;20119;-65
2021/07/22 06:47:17;;;;;;;4.78;1.40;;;;;;;33.70;16.78;99182.38;5039688;28;20524;-67
2021/07/22 06:49:42;;;;;;;6.65;1.30;;;;;;;32.55;18.45;99167.13;5090394;28;20557;-65
2021/07/22 06:52:09;;;;;;;6.30;1.42;;;;;;;33.65;17.10;99166.69;5090820;28;20048;-66
2021/07/22 06:54:35;;;;;;;2.33;1.45;;;;;;;33.79;16.84;99165.75;5037261;28;20343;-66
2021/07/22 06:57:01;;;;;;;5.28;1.40;;;;;;;33.68;17.37;99166.31;5089097;28;20394;-66
2021/07/22 06:59:27;;;;;;;4.93;1.50;;;;;;;34.12;16.78;99167.78;5087471;28;20448;-66
2021/07/22 07:01:53;;;;;;;3.92;1.48;;;;;;;33.83;16.97;99165.38;5037020;28;20085;-67
2021/07/22 07:04:18;;;;;;;2.17;1.20;;;;;;;33.29;17.38;99169.53;5070987;28;20048;-65
2021/07/22 07:06:44;;;;;;;5.25;1.40;;;;;;;33.32;17.08;99169.16;5086527;28;20048;-65
2021/07/22 07:09:10;;;;;;;2.83;1.40;;;;;;;33.20;16.57;99149.03;5072014;28;20511;-66
2021/07/22 07:11:35;;;;;;;3.47;1.83;;;;;;;32.37;17.92;99169.44;5089421;28;20558;-65
2021/07/22 07:14:01;;;;;;;1.50;1.40;;;;;;;32.09;18.23;99153.06;5088857;28;20039;-66
2021/07/22 07:16:27;;;;;;;2.38;1.27;;;;;;;32.18;17.96;99149.19;5089859;28;20082;-66
2021/07/22 07:18:52;;;;;;;10.50;1.42;;;;;;;32.45;17.54;99165.78;5088557;28;20083;-66
2021/07/22 07:21:18;;;;;;;8.43;1.20;;;;;;;30.91;18.78;99158.28;5088849;28;20398;-66
2021/07/22 07:23:44;;;;;;;6.40;1.38;;;;;;;30.42;20.16;99171.22;5071661;28;20044;-66
2021/07/22 07:26:11;;;;;;;2.25;1.40;;;;;;;31.75;18.67;99158.19;5071036;28;20043;-65
2021/07/22 07:28:37;;;;;;;3.10;1.40;;;;;;;33.33;17.31;99175.44;5089614;28;20036;-64
2021/07/22 07:31:03;;;;;;;5.20;1.60;;;;;;;33.70;16.96;99172.38;5089842;28;20044;-65
2021/07/22 07:33:29;;;;;;;4.85;1.50;;;;;;;34.07;16.20;99167.56;5071415;28;20051;-65
2021/07/22 07:35:56;;;;;;;8.63;1.92;;;;;;;34.00;16.16;99164.81;5089061;28;20043;-67
2021/07/22 07:38:22;;;;;;;9.65;1.48;;;;;;;33.71;15.96;99160.47;5090587;28;20047;-66
2021/07/22 07:40:48;;;;;;;10.23;1.40;;;;;;;32.71;16.89;99167.94;5071552;28;20051;-66
2021/07/22 07:43:18;;;;;;;6.43;1.55;;;;;;;32.70;16.67;99148.16;5089588;28;20052;-67
2021/07/22 07:45:44;;;;;;;4.95;1.10;;;;;;;32.29;15.54;99156.03;5089999;28;20048;-65
2021/07/22 07:48:10;;;;;;;7.47;1.10;;;;;;;32.55;15.32;99169.00;5087992;28;20527;-67
2021/07/22 07:50:36;;;;;;;4.63;1.40;;;;;;;33.27;14.89;99146.34;5087949;28;20067;-66
2021/07/22 07:53:12;;;;;;;8.13;1.30;;;;;;;33.70;15.12;99158.81;5089420;28;20435;-67
2021/07/22 07:55:39;;;;;;;2.65;1.00;;;;;;;33.99;14.62;99152.28;5090430;28;20097;-66
2021/07/22 07:58:04;;;;;;;6.35;1.40;;;;;;;33.81;14.85;99157.41;5087403;28;20485;-67
2021/07/22 08:00:30;;;;;;;6.25;1.30;;;;;;;33.83;14.69;99159.94;5088633;28;20059;-66
2021/07/22 08:02:58;;;;;;;8.20;1.20;;;;;;;33.63;14.76;99160.63;5088934;28;20051;-66
2021/07/22 08:05:25;;;;;;;2.50;1.30;;;;;;;32.94;15.67;99149.66;5088509;28;20043;-68
2021/07/22 08:07:51;;;;;;;7.93;1.50;;;;;;;33.38;14.26;99156.69;5087998;28;20048;-65
2021/07/22 08:10:16;;;;;;;6.88;1.40;;;;;;;33.56;13.98;99157.06;5086639;28;20468;-66
2021/07/22 08:12:42;;;;;;;18.30;1.60;;;;;;;33.60;13.92;99150.19;5085826;28;20070;-66
2021/07/22 08:15:10;;;;;;;4.40;1.00;;;;;;;33.26;13.81;99163.66;5087691;28;20040;-66
2021/07/22 08:17:36;;;;;;;4.95;0.98;;;;;;;33.20;13.92;99164.44;5035722;28;20066;-66
2021/07/22 08:20:05;;;;;;;4.65;1.10;;;;;;;33.51;13.62;99162.22;5087412;28;20129;-67
2021/07/22 08:22:32;;;;;;;4.35;0.95;;;;;;;33.27;13.94;99149.06;5036297;28;20489;-67
2021/07/22 08:24:58;;;;;;;11.90;1.23;;;;;;;33.22;13.89;99156.97;5089043;28;20447;-67
2021/07/22 08:27:28;;;;;;;16.52;1.92;;;;;;;33.84;13.16;99158.91;5088855;28;21040;-66
2021/07/22 08:29:54;;;;;;;2.92;1.30;;;;;;;34.10;12.74;99167.16;5087958;28;20043;-66
2021/07/22 08:32:21;;;;;;;1.73;1.10;;;;;;;33.80;13.27;99167.41;5087574;28;20044;-65
2021/07/22 08:34:47;;;;;;;4.72;1.40;;;;;;;33.84;13.09;99173.31;5071054;28;20039;-67
2021/07/22 08:37:13;;;;;;;3.22;0.90;;;;;;;33.69;13.22;99176.13;5089100;28;20036;-66
2021/07/22 08:39:43;;;;;;;10.18;1.75;;;;;;;34.00;12.52;99150.41;5088078;28;20052;-66
2021/07/22 08:42:10;;;;;;;6.47;1.17;;;;;;;33.38;13.50;99157.53;5087269;28;20130;-66
2021/07/22 08:44:38;;;;;;;5.32;1.17;;;;;;;34.12;13.21;99143.38;5088465;28;20044;-65
2021/07/22 08:47:08;;;;;;;3.78;1.10;;;;;;;33.88;14.00;99146.59;5036626;28;20043;-66
2021/07/22 08:49:35;;;;;;;2.88;0.95;;;;;;;33.56;13.33;99159.75;5088707;28;20059;-66
2021/07/22 08:52:01;;;;;;;6.07;1.20;;;;;;;33.83;13.49;99155.34;5087509;28;20066;-66
2021/07/22 08:54:27;;;;;;;7.63;1.60;;;;;;;33.36;14.03;99147.91;5085181;28;20520;-67
2021/07/22 08:56:55;;;;;;;6.03;4.13;;;;;;;32.83;14.33;99133.91;5088879;28;20048;-66
2021/07/22 08:59:23;;;;;;;3.53;2.63;;;;;;;32.10;15.24;99145.78;5087201;28;20036;-66
2021/07/22 09:01:53;;;;;;;6.25;1.60;;;;;;;31.37;15.73;99160.09;5087168;28;20565;-66
2021/07/22 09:04:19;;;;;;;6.93;2.40;;;;;;;31.50;15.72;99149.50;5086687;28;20123;-67
2021/07/22 09:06:45;;;;;;;5.78;1.27;;;;;;;32.00;16.03;99156.06;5087870;28;20123;-65
2021/07/22 09:09:15;;;;;;;5.35;1.33;;;;;;;30.98;16.55;99137.63;5086508;28;20489;-65
2021/07/22 09:12:01;;;;;;;14.57;6.67;;;;;;;29.70;18.57;99159.72;5085809;28;20066;-65
2021/07/22 09:14:29;;;;;;;4.90;3.70;;;;;;;29.63;18.54;99153.34;5087206;28;20735;-67
2021/07/22 09:16:55;;;;;;;8.43;1.77;;;;;;;29.15;19.18;99140.78;5068490;28;20044;-67
2021/07/22 09:19:53;;;;;;;12.45;1.60;;;;;;;28.45;19.49;99152.00;5087024;28;20104;-65
2021/07/22 09:22:33;;;;;;;9.93;3.15;;;;;;;28.10;19.73;99151.19;5084947;28;20573;-63
2021/07/22 09:24:59;;;;;;;4.05;1.05;;;;;;;27.63;20.85;99133.84;5070824;28;20051;-65
2021/07/22 09:27:41;;;;;;;7.28;1.20;;;;;;;27.51;21.09;99147.53;5036175;28;20404;-66
2021/07/22 09:30:10;;;;;;;12.82;8.00;;;;;;;27.20;21.97;99138.25;5053533;28;20044;-65
2021/07/22 09:32:38;;;;;;;17.77;5.05;;;;;;;26.55;23.10;99132.31;5088333;28;20044;-65
2021/07/22 09:35:23;;;;;;;8.30;2.20;;;;;;;26.32;23.18;99142.63;5087087;28;20051;-66
2021/07/22 09:37:53;;;;;;;12.10;3.38;;;;;;;26.23;23.08;99120.25;5086803;28;20075;-67
2021/07/22 09:40:39;;;;;;;3.20;1.10;;;;;;;26.20;23.57;99128.59;5087858;28;20431;-65
2021/07/22 09:43:05;;;;;;;12.02;2.95;;;;;;;25.92;23.40;99141.16;5088866;28;20044;-66
2021/07/22 09:45:35;;;;;;;11.80;6.88;;;;;;;25.81;23.36;99132.47;5086566;28;20066;-67
2021/07/22 09:48:07;;;;;;;6.80;2.58;;;;;;;25.49;23.90;99138.22;5071791;28;20063;-67
2021/07/22 09:50:43;;;;;;;5.10;1.55;;;;;;;25.34;23.47;99148.56;5088253;28;20139;-65
2021/07/22 09:53:14;;;;;;;4.13;1.10;;;;;;;25.05;23.72;99135.22;5087700;28;20052;-65
2021/07/22 09:55:41;;;;;;;4.97;3.85;;;;;;;25.03;23.97;99129.16;5086969;28;20429;-65
2021/07/22 09:58:11;;;;;;;5.28;1.73;;;;;;;24.92;24.39;99130.13;5084989;28;20036;-65
2021/07/22 10:00:51;;;;;;;3.00;1.30;;;;;;;24.86;24.00;99138.72;5036686;28;20036;-66
2021/07/22 10:03:19;;;;;;;5.22;3.40;;;;;;;24.88;24.33;99134.06;5085146;28;20054;-67
2021/07/22 10:05:47;;;;;;;8.93;2.28;;;;;;;24.77;24.69;99128.03;5085979;28;20094;-67
2021/07/22 10:08:21;;;;;;;2.38;1.80;;;;;;;24.90;24.73;99126.75;5087427;28;20611;-67
2021/07/22 10:10:53;;;;;;;5.15;1.20;;;;;;;25.00;24.46;99130.28;5086017;28;20048;-67
2021/07/22 10:13:29;;;;;;;8.73;4.75;;;;;;;24.36;25.22;99132.66;5088044;28;20043;-66
2021/07/22 10:16:00;;;;;;;3.90;3.20;;;;;;;24.03;25.75;99131.16;5035673;28;20530;-69
2021/07/22 10:18:28;;;;;;;14.18;2.40;;;;;;;24.20;25.33;99113.63;5069816;28;20130;-66
2021/07/22 10:20:57;;;;;;;3.67;1.48;;;;;;;24.41;24.06;99127.75;5071737;28;20039;-67
2021/07/22 10:23:23;;;;;;;1.30;1.20;;;;;;;24.17;24.47;99137.94;5077062;28;20060;-66
2021/07/22 10:25:50;;;;;;;7.82;2.33;;;;;;;23.98;25.30;99146.78;5070058;28;20140;-67
2021/07/22 10:28:17;;;;;;;11.52;2.22;;;;;;;24.00;25.46;99139.47;5068924;28;20060;-66
2021/07/22 10:30:45;;;;;;;5.78;1.77;;;;;;;23.97;25.46;99126.38;5070681;28;20048;-67
2021/07/22 10:33:11;;;;;;;7.50;2.65;;;;;;;24.03;25.59;99115.97;5037204;28;20047;-68
2021/07/22 10:35:37;;;;;;;3.85;1.73;;;;;;;24.38;25.55;99131.53;5071324;28;20120;-66
2021/07/22 10:38:13;;;;;;;9.43;0.80;;;;;;;24.23;25.44;99138.25;5069761;28;20639;-66
2021/07/22 10:40:50;;;;;;;11.07;1.20;;;;;;;24.11;25.54;99134.00;5069456;28;20043;-66
2021/07/22 10:46:10;;;;;;;2.33;0.95;;;;;;;23.94;25.40;99134.66;5069311;28;20044;-67
2021/07/22 10:48:36;;;;;;;4.90;1.30;;;;;;;24.03;25.16;99141.84;5070041;28;20060;-66
2021/07/22 10:51:15;;;;;;;4.63;1.30;;;;;;;23.56;25.66;99114.00;5069896;28;20048;-67
2021/07/22 10:53:54;;;;;;;3.72;0.73;;;;;;;23.61;25.40;99139.31;5052965;28;20044;-68
2021/07/22 10:56:23;;;;;;;10.07;1.70;;;;;;;23.75;25.85;99127.41;5036898;28;20048;-66
2021/07/22 10:58:51;;;;;;;4.45;0.60;;;;;;;23.65;25.51;99129.19;5070540;28;20109;-65
2021/07/22 11:01:43;;;;;;;4.15;1.13;;;;;;;23.66;25.54;99134.41;5020089;28;20043;-66
2021/07/22 11:04:34;;;;;;;6.20;1.00;;;;;;;23.74;24.90;99141.75;5077996;28;20060;-71
2021/07/22 11:07:00;;;;;;;10.05;0.98;;;;;;;23.45;25.12;99120.25;5089643;28;20039;-68
2021/07/22 11:09:48;;;;;;;2.63;0.95;;;;;;;23.52;24.32;99148.09;5090552;28;20093;-68
2021/07/22 11:12:32;;;;;;;10.80;0.90;;;;;;;23.40;24.65;99144.66;5088169;28;20047;-67
2021/07/22 11:15:02;;;;;;;2.63;1.00;;;;;;;23.25;25.34;99135.31;5073254;28;20448;-68
2021/07/22 11:17:32;;;;;;;2.97;0.90;;;;;;;23.10;25.89;99132.16;5038944;28;20089;-66
2021/07/22 11:20:20;;;;;;;8.88;1.42;;;;;;;23.05;26.06;99142.38;5072830;28;20040;-67
2021/07/22 11:22:48;;;;;;;6.10;1.10;;;;;;;22.95;25.27;99137.91;5089456;28;20048;-68
2021/07/22 11:25:14;;;;;;;5.65;1.25;;;;;;;22.90;25.57;99127.63;5037618;28;20044;-70
2021/07/22 11:27:47;;;;;;;5.57;0.70;;;;;;;22.75;25.67;99136.91;5090127;28;20028;-67
2021/07/22 11:30:15;;;;;;;11.90;1.00;;;;;;;22.82;26.12;99140.78;5071210;28;20653;-68
2021/07/22 11:32:41;;;;;;;5.10;1.00;;;;;;;22.88;26.04;99142.91;5070711;28;20496;-67
2021/07/22 11:35:07;;;;;;;4.03;1.00;;;;;;;22.86;26.42;99128.03;5072708;28;20050;-67
2021/07/22 11:37:33;;;;;;;1.77;1.42;;;;;;;22.73;25.88;99133.50;5038669;28;20567;-68
2021/07/22 11:39:58;;;;;;;5.07;1.38;;;;;;;22.72;25.86;99121.16;5089879;28;20130;-68
2021/07/22 11:42:24;;;;;;;0.98;0.98;;;;;;;22.41;25.79;99120.22;5072069;28;20044;-65
2021/07/22 11:45:02;;;;;;;8.20;1.48;;;;;;;22.52;26.67;99118.34;5072808;28;20046;-68
2021/07/22 11:47:31;;;;;;;3.35;1.00;;;;;;;22.47;27.26;99139.22;5088558;28;20051;-67
2021/07/22 11:49:57;;;;;;;7.60;0.90;;;;;;;22.59;27.32;99141.81;5055261;28;20040;-68
2021/07/22 11:52:27;;;;;;;2.58;1.17;;;;;;;22.34;27.24;99127.88;5072755;28;20133;-68